sensor_id;sensor_type;location;lat;lon;timestamp;temperature;humidity
55828;DHT22;41758;51.992;5.890;2023-09-30T00:01:42;18.10;63.90
55828;DHT22;41758;51.992;5.890;2023-09-30T00:04:10;18.10;63.90
55828;DHT22;41758;51.992;5.890;2023-09-30T00:06:36;18.10;63.90
55828;DHT22;41758;51.992;5.890;2023-09-30T00:09:02;18.10;63.90
55828;DHT22;41758;51.992;5.890;2023-09-30T00:11:27;18.10;63.90
55828;DHT22;41758;51.992;5.890;2023-09-30T00:13:53;18.00;63.90
55828;DHT22;41758;51.992;5.890;2023-09-30T00:16:19;18.10;63.90
55828;DHT22;41758;51.992;5.890;2023-09-30T00:18:45;18.10;64.00
55828;DHT22;41758;51.992;5.890;2023-09-30T00:21:11;18.10;64.00
55828;DHT22;41758;51.992;5.890;2023-09-30T00:23:37;18.10;64.00
55828;DHT22;41758;51.992;5.890;2023-09-30T00:26:03;18.10;63.90
55828;DHT22;41758;51.992;5.890;2023-09-30T00:28:29;18.10;63.90
55828;DHT22;41758;51.992;5.890;2023-09-30T00:30:56;18.10;64.00
55828;DHT22;41758;51.992;5.890;2023-09-30T00:33:21;18.10;63.90
55828;DHT22;41758;51.992;5.890;2023-09-30T00:35:47;18.10;63.90
55828;DHT22;41758;51.992;5.890;2023-09-30T00:38:13;18.10;64.00
55828;DHT22;41758;51.992;5.890;2023-09-30T00:40:39;18.10;64.00
55828;DHT22;41758;51.992;5.890;2023-09-30T00:43:05;18.10;63.90
55828;DHT22;41758;51.992;5.890;2023-09-30T00:45:32;18.10;63.90
55828;DHT22;41758;51.992;5.890;2023-09-30T00:47:58;18.10;63.80
55828;DHT22;41758;51.992;5.890;2023-09-30T00:50:24;18.00;63.80
55828;DHT22;41758;51.992;5.890;2023-09-30T00:52:50;18.00;63.80
55828;DHT22;41758;51.992;5.890;2023-09-30T00:55:16;18.00;63.90
55828;DHT22;41758;51.992;5.890;2023-09-30T00:57:43;17.90;63.90
55828;DHT22;41758;51.992;5.890;2023-09-30T01:00:11;17.90;63.90
55828;DHT22;41758;51.992;5.890;2023-09-30T01:02:39;17.90;63.90
55828;DHT22;41758;51.992;5.890;2023-09-30T01:05:07;17.90;63.90
55828;DHT22;41758;51.992;5.890;2023-09-30T01:07:34;17.90;63.90
55828;DHT22;41758;51.992;5.890;2023-09-30T01:09:59;17.90;63.90
55828;DHT22;41758;51.992;5.890;2023-09-30T01:12:25;17.80;63.90
55828;DHT22;41758;51.992;5.890;2023-09-30T01:14:57;17.80;63.90
55828;DHT22;41758;51.992;5.890;2023-09-30T01:17:24;17.80;63.90
55828;DHT22;41758;51.992;5.890;2023-09-30T01:19:49;17.80;64.00
55828;DHT22;41758;51.992;5.890;2023-09-30T01:22:17;17.80;64.00
55828;DHT22;41758;51.992;5.890;2023-09-30T01:24:43;17.70;64.00
55828;DHT22;41758;51.992;5.890;2023-09-30T01:27:09;17.70;64.00
55828;DHT22;41758;51.992;5.890;2023-09-30T01:29:35;17.70;64.00
55828;DHT22;41758;51.992;5.890;2023-09-30T01:32:04;17.70;64.00
55828;DHT22;41758;51.992;5.890;2023-09-30T01:34:34;17.70;64.00
55828;DHT22;41758;51.992;5.890;2023-09-30T01:37:00;17.70;64.00
55828;DHT22;41758;51.992;5.890;2023-09-30T01:39:26;17.60;64.00
55828;DHT22;41758;51.992;5.890;2023-09-30T01:41:52;17.60;64.00
55828;DHT22;41758;51.992;5.890;2023-09-30T01:44:17;17.60;64.00
55828;DHT22;41758;51.992;5.890;2023-09-30T01:46:43;17.60;64.00
55828;DHT22;41758;51.992;5.890;2023-09-30T01:49:09;17.60;64.00
55828;DHT22;41758;51.992;5.890;2023-09-30T01:51:35;17.60;64.00
55828;DHT22;41758;51.992;5.890;2023-09-30T01:54:01;17.60;64.00
55828;DHT22;41758;51.992;5.890;2023-09-30T01:56:26;17.60;64.10
55828;DHT22;41758;51.992;5.890;2023-09-30T01:58:52;17.60;64.10
55828;DHT22;41758;51.992;5.890;2023-09-30T02:01:18;17.50;64.10
55828;DHT22;41758;51.992;5.890;2023-09-30T02:03:44;17.60;64.10
55828;DHT22;41758;51.992;5.890;2023-09-30T02:06:09;17.60;64.10
55828;DHT22;41758;51.992;5.890;2023-09-30T02:08:36;17.60;64.10
55828;DHT22;41758;51.992;5.890;2023-09-30T02:11:03;17.50;64.10
55828;DHT22;41758;51.992;5.890;2023-09-30T02:13:35;17.50;64.10
55828;DHT22;41758;51.992;5.890;2023-09-30T02:16:00;17.50;64.10
55828;DHT22;41758;51.992;5.890;2023-09-30T02:18:27;17.50;64.10
55828;DHT22;41758;51.992;5.890;2023-09-30T02:20:53;17.50;64.10
55828;DHT22;41758;51.992;5.890;2023-09-30T02:23:19;17.50;64.10
55828;DHT22;41758;51.992;5.890;2023-09-30T02:25:45;17.50;64.10
55828;DHT22;41758;51.992;5.890;2023-09-30T02:28:10;17.50;64.10
55828;DHT22;41758;51.992;5.890;2023-09-30T02:30:36;17.50;64.10
55828;DHT22;41758;51.992;5.890;2023-09-30T02:33:03;17.50;64.10
55828;DHT22;41758;51.992;5.890;2023-09-30T02:35:30;17.50;64.20
55828;DHT22;41758;51.992;5.890;2023-09-30T02:37:55;17.50;64.20
55828;DHT22;41758;51.992;5.890;2023-09-30T02:40:21;17.50;64.30
55828;DHT22;41758;51.992;5.890;2023-09-30T02:42:50;17.50;64.30
55828;DHT22;41758;51.992;5.890;2023-09-30T02:45:16;17.50;64.30
55828;DHT22;41758;51.992;5.890;2023-09-30T02:47:44;17.50;64.40
55828;DHT22;41758;51.992;5.890;2023-09-30T02:50:10;17.60;64.40
55828;DHT22;41758;51.992;5.890;2023-09-30T02:52:41;17.60;64.40
55828;DHT22;41758;51.992;5.890;2023-09-30T02:55:11;17.60;64.40
55828;DHT22;41758;51.992;5.890;2023-09-30T02:57:37;17.70;64.40
55828;DHT22;41758;51.992;5.890;2023-09-30T03:00:08;17.70;64.30
55828;DHT22;41758;51.992;5.890;2023-09-30T03:02:49;17.80;64.30
55828;DHT22;41758;51.992;5.890;2023-09-30T03:05:17;17.80;64.30
55828;DHT22;41758;51.992;5.890;2023-09-30T03:07:43;17.80;64.30
55828;DHT22;41758;51.992;5.890;2023-09-30T03:10:09;17.80;64.30
55828;DHT22;41758;51.992;5.890;2023-09-30T03:12:35;17.80;64.30
55828;DHT22;41758;51.992;5.890;2023-09-30T03:15:01;17.80;64.30
55828;DHT22;41758;51.992;5.890;2023-09-30T03:17:31;17.80;64.30
55828;DHT22;41758;51.992;5.890;2023-09-30T03:19:58;17.90;64.30
55828;DHT22;41758;51.992;5.890;2023-09-30T03:22:27;17.90;64.30
55828;DHT22;41758;51.992;5.890;2023-09-30T03:24:54;17.90;64.30
55828;DHT22;41758;51.992;5.890;2023-09-30T03:27:20;17.90;64.30
55828;DHT22;41758;51.992;5.890;2023-09-30T03:29:46;17.90;64.30
55828;DHT22;41758;51.992;5.890;2023-09-30T03:32:12;17.90;64.30
55828;DHT22;41758;51.992;5.890;2023-09-30T03:34:37;17.90;64.30
55828;DHT22;41758;51.992;5.890;2023-09-30T03:37:03;17.90;64.30
55828;DHT22;41758;51.992;5.890;2023-09-30T03:39:32;17.90;64.30
55828;DHT22;41758;51.992;5.890;2023-09-30T03:41:58;17.90;64.30
55828;DHT22;41758;51.992;5.890;2023-09-30T03:44:24;17.90;64.30
55828;DHT22;41758;51.992;5.890;2023-09-30T03:46:51;17.90;64.30
55828;DHT22;41758;51.992;5.890;2023-09-30T03:49:18;17.90;64.30
55828;DHT22;41758;51.992;5.890;2023-09-30T03:51:45;17.90;64.30
55828;DHT22;41758;51.992;5.890;2023-09-30T03:54:11;17.90;64.30
55828;DHT22;41758;51.992;5.890;2023-09-30T03:56:37;17.90;64.30
55828;DHT22;41758;51.992;5.890;2023-09-30T03:59:07;17.90;64.30
55828;DHT22;41758;51.992;5.890;2023-09-30T04:01:34;17.90;64.40
55828;DHT22;41758;51.992;5.890;2023-09-30T04:04:00;17.90;64.40
55828;DHT22;41758;51.992;5.890;2023-09-30T04:06:26;17.90;64.30
55828;DHT22;41758;51.992;5.890;2023-09-30T04:08:51;17.90;64.30
55828;DHT22;41758;51.992;5.890;2023-09-30T04:11:17;17.90;64.30
55828;DHT22;41758;51.992;5.890;2023-09-30T04:13:44;17.90;64.30
55828;DHT22;41758;51.992;5.890;2023-09-30T04:16:10;17.90;64.30
55828;DHT22;41758;51.992;5.890;2023-09-30T04:18:36;17.90;64.30
55828;DHT22;41758;51.992;5.890;2023-09-30T04:21:02;17.90;64.30
55828;DHT22;41758;51.992;5.890;2023-09-30T04:23:28;17.90;64.30
55828;DHT22;41758;51.992;5.890;2023-09-30T04:25:53;17.90;64.30
55828;DHT22;41758;51.992;5.890;2023-09-30T04:28:19;17.90;64.30
55828;DHT22;41758;51.992;5.890;2023-09-30T04:30:49;17.90;64.30
55828;DHT22;41758;51.992;5.890;2023-09-30T04:33:18;17.90;64.30
55828;DHT22;41758;51.992;5.890;2023-09-30T04:35:46;17.80;64.30
55828;DHT22;41758;51.992;5.890;2023-09-30T04:38:12;17.80;64.40
55828;DHT22;41758;51.992;5.890;2023-09-30T04:40:38;17.80;64.40
55828;DHT22;41758;51.992;5.890;2023-09-30T04:43:04;17.80;64.40
55828;DHT22;41758;51.992;5.890;2023-09-30T04:45:31;17.80;64.40
55828;DHT22;41758;51.992;5.890;2023-09-30T04:47:56;17.80;64.40
55828;DHT22;41758;51.992;5.890;2023-09-30T04:50:22;17.80;64.40
55828;DHT22;41758;51.992;5.890;2023-09-30T04:52:48;17.80;64.30
55828;DHT22;41758;51.992;5.890;2023-09-30T04:55:15;17.80;64.40
55828;DHT22;41758;51.992;5.890;2023-09-30T04:57:43;17.80;64.40
55828;DHT22;41758;51.992;5.890;2023-09-30T05:00:18;17.80;64.40
55828;DHT22;41758;51.992;5.890;2023-09-30T05:02:47;17.80;64.50
55828;DHT22;41758;51.992;5.890;2023-09-30T05:05:13;17.80;64.50
55828;DHT22;41758;51.992;5.890;2023-09-30T05:07:40;17.80;64.50
55828;DHT22;41758;51.992;5.890;2023-09-30T05:10:07;17.80;64.50
55828;DHT22;41758;51.992;5.890;2023-09-30T05:12:37;17.80;64.50
55828;DHT22;41758;51.992;5.890;2023-09-30T05:15:04;17.80;64.50
55828;DHT22;41758;51.992;5.890;2023-09-30T05:17:31;17.80;64.50
55828;DHT22;41758;51.992;5.890;2023-09-30T05:19:58;17.90;64.50
55828;DHT22;41758;51.992;5.890;2023-09-30T05:22:24;17.80;64.50
55828;DHT22;41758;51.992;5.890;2023-09-30T05:24:53;17.80;64.50
55828;DHT22;41758;51.992;5.890;2023-09-30T05:27:19;17.80;64.50
55828;DHT22;41758;51.992;5.890;2023-09-30T05:29:45;17.90;64.50
55828;DHT22;41758;51.992;5.890;2023-09-30T05:32:11;17.80;64.50
55828;DHT22;41758;51.992;5.890;2023-09-30T05:34:38;17.90;64.50
55828;DHT22;41758;51.992;5.890;2023-09-30T05:37:05;17.90;64.50
55828;DHT22;41758;51.992;5.890;2023-09-30T05:39:30;17.80;64.50
55828;DHT22;41758;51.992;5.890;2023-09-30T05:41:57;17.90;64.50
55828;DHT22;41758;51.992;5.890;2023-09-30T05:44:23;17.80;64.50
55828;DHT22;41758;51.992;5.890;2023-09-30T05:46:51;17.90;64.50
55828;DHT22;41758;51.992;5.890;2023-09-30T05:49:17;17.90;64.50
55828;DHT22;41758;51.992;5.890;2023-09-30T05:51:44;17.90;64.50
55828;DHT22;41758;51.992;5.890;2023-09-30T05:54:12;17.90;64.50
55828;DHT22;41758;51.992;5.890;2023-09-30T05:56:38;17.90;64.50
55828;DHT22;41758;51.992;5.890;2023-09-30T05:59:05;17.90;64.50
55828;DHT22;41758;51.992;5.890;2023-09-30T06:01:32;17.90;64.50
55828;DHT22;41758;51.992;5.890;2023-09-30T06:03:58;17.90;64.50
55828;DHT22;41758;51.992;5.890;2023-09-30T06:06:26;17.90;64.50
55828;DHT22;41758;51.992;5.890;2023-09-30T06:08:53;17.90;64.50
55828;DHT22;41758;51.992;5.890;2023-09-30T06:11:22;17.90;64.50
55828;DHT22;41758;51.992;5.890;2023-09-30T06:13:57;17.90;64.50
55828;DHT22;41758;51.992;5.890;2023-09-30T06:16:29;17.90;64.50
55828;DHT22;41758;51.992;5.890;2023-09-30T06:18:57;17.80;64.50
55828;DHT22;41758;51.992;5.890;2023-09-30T06:21:24;17.80;64.60
55828;DHT22;41758;51.992;5.890;2023-09-30T06:23:51;17.90;64.60
55828;DHT22;41758;51.992;5.890;2023-09-30T06:26:19;17.90;64.60
55828;DHT22;41758;51.992;5.890;2023-09-30T06:28:47;17.80;64.60
55828;DHT22;41758;51.992;5.890;2023-09-30T06:31:14;17.90;64.70
55828;DHT22;41758;51.992;5.890;2023-09-30T06:33:40;17.90;64.70
55828;DHT22;41758;51.992;5.890;2023-09-30T06:36:13;17.90;64.70
55828;DHT22;41758;51.992;5.890;2023-09-30T06:38:40;17.90;64.70
55828;DHT22;41758;51.992;5.890;2023-09-30T06:41:07;18.00;64.80
55828;DHT22;41758;51.992;5.890;2023-09-30T06:43:34;18.00;64.80
55828;DHT22;41758;51.992;5.890;2023-09-30T06:46:09;18.00;64.80
55828;DHT22;41758;51.992;5.890;2023-09-30T06:48:38;18.10;64.80
55828;DHT22;41758;51.992;5.890;2023-09-30T06:51:06;18.10;64.80
55828;DHT22;41758;51.992;5.890;2023-09-30T06:53:31;18.10;64.90
55828;DHT22;41758;51.992;5.890;2023-09-30T06:55:57;18.10;64.90
55828;DHT22;41758;51.992;5.890;2023-09-30T06:58:23;18.20;64.90
55828;DHT22;41758;51.992;5.890;2023-09-30T07:00:50;18.20;64.90
55828;DHT22;41758;51.992;5.890;2023-09-30T07:03:17;18.30;65.00
55828;DHT22;41758;51.992;5.890;2023-09-30T07:05:43;18.30;65.00
55828;DHT22;41758;51.992;5.890;2023-09-30T07:08:12;18.30;65.00
55828;DHT22;41758;51.992;5.890;2023-09-30T07:10:38;18.40;65.00
55828;DHT22;41758;51.992;5.890;2023-09-30T07:13:04;18.40;65.00
55828;DHT22;41758;51.992;5.890;2023-09-30T07:15:29;18.40;65.00
55828;DHT22;41758;51.992;5.890;2023-09-30T07:17:55;18.50;65.00
55828;DHT22;41758;51.992;5.890;2023-09-30T07:20:21;18.50;65.00
55828;DHT22;41758;51.992;5.890;2023-09-30T07:22:48;18.50;65.10
55828;DHT22;41758;51.992;5.890;2023-09-30T07:25:14;18.60;65.10
55828;DHT22;41758;51.992;5.890;2023-09-30T07:27:46;18.60;65.10
55828;DHT22;41758;51.992;5.890;2023-09-30T07:30:13;18.60;65.10
55828;DHT22;41758;51.992;5.890;2023-09-30T07:32:43;18.60;65.20
55828;DHT22;41758;51.992;5.890;2023-09-30T07:35:10;18.70;65.20
55828;DHT22;41758;51.992;5.890;2023-09-30T07:37:36;18.80;65.20
55828;DHT22;41758;51.992;5.890;2023-09-30T07:40:01;18.70;65.20
55828;DHT22;41758;51.992;5.890;2023-09-30T07:42:27;18.80;65.20
55828;DHT22;41758;51.992;5.890;2023-09-30T07:44:53;18.80;65.30
55828;DHT22;41758;51.992;5.890;2023-09-30T07:47:19;18.80;65.30
55828;DHT22;41758;51.992;5.890;2023-09-30T07:49:45;18.90;65.30
55828;DHT22;41758;51.992;5.890;2023-09-30T07:52:12;18.90;65.30
55828;DHT22;41758;51.992;5.890;2023-09-30T07:54:37;18.90;65.40
55828;DHT22;41758;51.992;5.890;2023-09-30T07:57:03;18.90;65.40
55828;DHT22;41758;51.992;5.890;2023-09-30T07:59:29;19.00;65.40
55828;DHT22;41758;51.992;5.890;2023-09-30T08:01:54;19.00;65.50
55828;DHT22;41758;51.992;5.890;2023-09-30T08:04:21;19.00;65.40
55828;DHT22;41758;51.992;5.890;2023-09-30T08:06:47;19.00;65.60
55828;DHT22;41758;51.992;5.890;2023-09-30T08:09:15;19.00;65.80
55828;DHT22;41758;51.992;5.890;2023-09-30T08:11:44;19.00;66.00
55828;DHT22;41758;51.992;5.890;2023-09-30T08:14:10;19.10;66.00
55828;DHT22;41758;51.992;5.890;2023-09-30T08:16:36;19.20;66.10
55828;DHT22;41758;51.992;5.890;2023-09-30T08:19:03;19.30;66.10
55828;DHT22;41758;51.992;5.890;2023-09-30T08:21:29;19.30;66.10
55828;DHT22;41758;51.992;5.890;2023-09-30T08:23:56;19.40;66.10
55828;DHT22;41758;51.992;5.890;2023-09-30T08:26:22;19.40;66.10
55828;DHT22;41758;51.992;5.890;2023-09-30T08:28:48;19.50;66.10
55828;DHT22;41758;51.992;5.890;2023-09-30T08:31:14;19.60;66.10
55828;DHT22;41758;51.992;5.890;2023-09-30T08:33:39;19.70;66.00
55828;DHT22;41758;51.992;5.890;2023-09-30T08:36:07;19.70;66.00
55828;DHT22;41758;51.992;5.890;2023-09-30T08:38:38;19.80;66.00
55828;DHT22;41758;51.992;5.890;2023-09-30T08:41:04;19.90;65.90
55828;DHT22;41758;51.992;5.890;2023-09-30T08:43:30;19.90;65.60
55828;DHT22;41758;51.992;5.890;2023-09-30T08:45:58;19.90;65.70
55828;DHT22;41758;51.992;5.890;2023-09-30T08:48:28;20.00;65.70
55828;DHT22;41758;51.992;5.890;2023-09-30T08:50:56;20.00;65.70
55828;DHT22;41758;51.992;5.890;2023-09-30T08:53:24;20.00;65.60
55828;DHT22;41758;51.992;5.890;2023-09-30T08:55:53;20.10;65.70
55828;DHT22;41758;51.992;5.890;2023-09-30T08:58:23;20.20;65.70
55828;DHT22;41758;51.992;5.890;2023-09-30T09:00:49;20.30;66.10
55828;DHT22;41758;51.992;5.890;2023-09-30T09:03:17;20.40;66.20
55828;DHT22;41758;51.992;5.890;2023-09-30T09:05:43;20.40;66.30
55828;DHT22;41758;51.992;5.890;2023-09-30T09:08:09;20.40;66.30
55828;DHT22;41758;51.992;5.890;2023-09-30T09:10:35;20.50;66.30
55828;DHT22;41758;51.992;5.890;2023-09-30T09:13:00;20.60;65.70
55828;DHT22;41758;51.992;5.890;2023-09-30T09:15:27;20.60;65.50
55828;DHT22;41758;51.992;5.890;2023-09-30T09:17:57;20.60;65.60
55828;DHT22;41758;51.992;5.890;2023-09-30T09:20:24;20.70;65.70
55828;DHT22;41758;51.992;5.890;2023-09-30T09:22:55;20.80;65.60
55828;DHT22;41758;51.992;5.890;2023-09-30T09:25:23;20.80;65.60
55828;DHT22;41758;51.992;5.890;2023-09-30T09:27:50;20.90;65.50
55828;DHT22;41758;51.992;5.890;2023-09-30T09:30:27;21.00;65.40
55828;DHT22;41758;51.992;5.890;2023-09-30T09:35:24;21.00;65.20
55828;DHT22;41758;51.992;5.890;2023-09-30T09:37:57;21.10;65.00
55828;DHT22;41758;51.992;5.890;2023-09-30T09:40:25;21.20;64.60
55828;DHT22;41758;51.992;5.890;2023-09-30T09:42:51;21.20;64.50
55828;DHT22;41758;51.992;5.890;2023-09-30T09:45:25;21.30;64.60
55828;DHT22;41758;51.992;5.890;2023-09-30T09:47:52;21.30;64.40
55828;DHT22;41758;51.992;5.890;2023-09-30T09:50:19;21.30;64.40
55828;DHT22;41758;51.992;5.890;2023-09-30T09:52:48;21.40;64.40
55828;DHT22;41758;51.992;5.890;2023-09-30T09:55:20;21.40;64.30
55828;DHT22;41758;51.992;5.890;2023-09-30T09:57:49;21.50;64.30
55828;DHT22;41758;51.992;5.890;2023-09-30T10:00:17;21.60;63.90
55828;DHT22;41758;51.992;5.890;2023-09-30T10:02:45;21.60;64.10
55828;DHT22;41758;51.992;5.890;2023-09-30T10:05:12;21.70;64.20
55828;DHT22;41758;51.992;5.890;2023-09-30T10:07:44;21.80;64.10
55828;DHT22;41758;51.992;5.890;2023-09-30T10:10:16;21.90;63.20
55828;DHT22;41758;51.992;5.890;2023-09-30T10:12:42;22.00;63.50
55828;DHT22;41758;51.992;5.890;2023-09-30T10:18:04;22.10;62.90
55828;DHT22;41758;51.992;5.890;2023-09-30T10:20:31;22.30;62.70
55828;DHT22;41758;51.992;5.890;2023-09-30T10:25:51;22.40;62.50
55828;DHT22;41758;51.992;5.890;2023-09-30T10:31:15;22.50;61.40
55828;DHT22;41758;51.992;5.890;2023-09-30T10:38:54;22.80;61.60
55828;DHT22;41758;51.992;5.890;2023-09-30T10:46:52;23.20;61.90
55828;DHT22;41758;51.992;5.890;2023-09-30T10:51:57;23.50;61.60
55828;DHT22;41758;51.992;5.890;2023-09-30T10:56:49;24.00;61.20
55828;DHT22;41758;51.992;5.890;2023-09-30T10:59:26;24.10;58.30
55828;DHT22;41758;51.992;5.890;2023-09-30T11:01:52;24.20;58.20
55828;DHT22;41758;51.992;5.890;2023-09-30T11:04:19;24.30;58.10
55828;DHT22;41758;51.992;5.890;2023-09-30T11:06:46;24.30;57.50
55828;DHT22;41758;51.992;5.890;2023-09-30T11:09:19;24.30;56.50
55828;DHT22;41758;51.992;5.890;2023-09-30T11:11:50;24.30;56.30
55828;DHT22;41758;51.992;5.890;2023-09-30T11:14:29;24.30;56.00
55828;DHT22;41758;51.992;5.890;2023-09-30T11:17:00;24.30;56.40
55828;DHT22;41758;51.992;5.890;2023-09-30T11:19:37;24.30;56.30
55828;DHT22;41758;51.992;5.890;2023-09-30T11:22:11;24.30;55.40
55828;DHT22;41758;51.992;5.890;2023-09-30T11:24:37;24.10;53.80
55828;DHT22;41758;51.992;5.890;2023-09-30T11:27:03;24.10;54.50
55828;DHT22;41758;51.992;5.890;2023-09-30T11:29:29;24.00;54.40
55828;DHT22;41758;51.992;5.890;2023-09-30T11:31:55;24.00;54.10
55828;DHT22;41758;51.992;5.890;2023-09-30T11:34:31;23.90;53.90
55828;DHT22;41758;51.992;5.890;2023-09-30T11:37:00;23.90;53.00
55828;DHT22;41758;51.992;5.890;2023-09-30T11:39:27;23.80;52.60
55828;DHT22;41758;51.992;5.890;2023-09-30T11:41:54;23.80;52.50
55828;DHT22;41758;51.992;5.890;2023-09-30T11:44:26;23.80;52.00
55828;DHT22;41758;51.992;5.890;2023-09-30T11:46:57;23.80;52.80
55828;DHT22;41758;51.992;5.890;2023-09-30T11:51:56;24.30;53.00
55828;DHT22;41758;51.992;5.890;2023-09-30T11:54:22;24.50;53.30
55828;DHT22;41758;51.992;5.890;2023-09-30T11:56:49;24.80;50.30
55828;DHT22;41758;51.992;5.890;2023-09-30T11:59:16;25.00;50.30
55828;DHT22;41758;51.992;5.890;2023-09-30T12:01:45;25.10;50.20
55828;DHT22;41758;51.992;5.890;2023-09-30T12:04:14;25.30;48.20
55828;DHT22;41758;51.992;5.890;2023-09-30T12:06:43;25.30;48.80
55828;DHT22;41758;51.992;5.890;2023-09-30T12:09:08;25.30;49.10
55828;DHT22;41758;51.992;5.890;2023-09-30T12:11:39;25.40;49.40
55828;DHT22;41758;51.992;5.890;2023-09-30T12:14:05;25.40;47.30
55828;DHT22;41758;51.992;5.890;2023-09-30T12:16:31;25.40;47.10
55828;DHT22;41758;51.992;5.890;2023-09-30T12:18:57;25.30;47.30
55828;DHT22;41758;51.992;5.890;2023-09-30T12:21:23;25.30;48.00
55828;DHT22;41758;51.992;5.890;2023-09-30T12:23:49;25.30;48.10
55828;DHT22;41758;51.992;5.890;2023-09-30T12:26:15;25.50;47.40
55828;DHT22;41758;51.992;5.890;2023-09-30T12:28:43;25.50;46.60
55828;DHT22;41758;51.992;5.890;2023-09-30T12:31:09;25.60;45.60
55828;DHT22;41758;51.992;5.890;2023-09-30T12:33:36;25.60;46.30
55828;DHT22;41758;51.992;5.890;2023-09-30T12:36:02;25.70;45.40
55828;DHT22;41758;51.992;5.890;2023-09-30T12:38:27;25.70;45.50
55828;DHT22;41758;51.992;5.890;2023-09-30T12:40:54;25.80;45.60
55828;DHT22;41758;51.992;5.890;2023-09-30T12:43:21;25.90;45.50
55828;DHT22;41758;51.992;5.890;2023-09-30T12:45:47;25.90;44.00
55828;DHT22;41758;51.992;5.890;2023-09-30T12:48:14;26.00;44.70
55828;DHT22;41758;51.992;5.890;2023-09-30T12:50:40;26.10;44.50
55828;DHT22;41758;51.992;5.890;2023-09-30T12:53:06;26.20;44.80
55828;DHT22;41758;51.992;5.890;2023-09-30T12:55:32;26.40;44.40
55828;DHT22;41758;51.992;5.890;2023-09-30T12:57:58;26.50;44.80
55828;DHT22;41758;51.992;5.890;2023-09-30T13:00:25;26.60;45.00
55828;DHT22;41758;51.992;5.890;2023-09-30T13:02:52;26.70;44.20
55828;DHT22;41758;51.992;5.890;2023-09-30T13:05:18;26.80;44.50
55828;DHT22;41758;51.992;5.890;2023-09-30T13:07:49;26.70;44.70
55828;DHT22;41758;51.992;5.890;2023-09-30T13:10:14;26.60;45.10
55828;DHT22;41758;51.992;5.890;2023-09-30T13:12:40;26.60;45.20
55828;DHT22;41758;51.992;5.890;2023-09-30T13:15:06;26.50;45.50
55828;DHT22;41758;51.992;5.890;2023-09-30T13:17:34;26.40;45.40
55828;DHT22;41758;51.992;5.890;2023-09-30T13:20:00;26.30;45.30
55828;DHT22;41758;51.992;5.890;2023-09-30T13:22:30;26.30;45.40
55828;DHT22;41758;51.992;5.890;2023-09-30T13:24:56;26.10;44.80
55828;DHT22;41758;51.992;5.890;2023-09-30T13:27:22;25.90;44.20
55828;DHT22;41758;51.992;5.890;2023-09-30T13:29:48;25.80;44.60
55828;DHT22;41758;51.992;5.890;2023-09-30T13:32:13;25.70;44.40
55828;DHT22;41758;51.992;5.890;2023-09-30T13:34:39;25.50;44.90
55828;DHT22;41758;51.992;5.890;2023-09-30T13:37:06;25.40;45.40
55828;DHT22;41758;51.992;5.890;2023-09-30T13:39:32;25.30;45.50
55828;DHT22;41758;51.992;5.890;2023-09-30T13:41:59;25.30;45.90
55828;DHT22;41758;51.992;5.890;2023-09-30T13:44:25;25.30;46.00
55828;DHT22;41758;51.992;5.890;2023-09-30T13:46:50;25.20;46.00
55828;DHT22;41758;51.992;5.890;2023-09-30T13:49:16;25.10;46.20
55828;DHT22;41758;51.992;5.890;2023-09-30T13:51:43;25.10;46.50
55828;DHT22;41758;51.992;5.890;2023-09-30T13:54:08;25.10;46.50
55828;DHT22;41758;51.992;5.890;2023-09-30T13:56:34;25.00;46.30
55828;DHT22;41758;51.992;5.890;2023-09-30T13:59:00;25.00;46.70
55828;DHT22;41758;51.992;5.890;2023-09-30T14:01:26;25.00;47.00
55828;DHT22;41758;51.992;5.890;2023-09-30T14:03:52;25.00;47.10
55828;DHT22;41758;51.992;5.890;2023-09-30T14:06:21;25.00;47.20
55828;DHT22;41758;51.992;5.890;2023-09-30T14:08:47;25.00;46.60
55828;DHT22;41758;51.992;5.890;2023-09-30T14:11:12;24.90;46.50
55828;DHT22;41758;51.992;5.890;2023-09-30T14:13:38;24.90;46.30
55828;DHT22;41758;51.992;5.890;2023-09-30T14:16:08;24.80;45.60
55828;DHT22;41758;51.992;5.890;2023-09-30T14:18:34;24.70;46.10
55828;DHT22;41758;51.992;5.890;2023-09-30T14:21:02;24.60;45.80
55828;DHT22;41758;51.992;5.890;2023-09-30T14:23:27;24.60;46.10
55828;DHT22;41758;51.992;5.890;2023-09-30T14:25:54;24.60;46.00
55828;DHT22;41758;51.992;5.890;2023-09-30T14:28:25;24.60;45.50
55828;DHT22;41758;51.992;5.890;2023-09-30T14:30:51;24.50;45.90
55828;DHT22;41758;51.992;5.890;2023-09-30T14:33:17;24.50;46.00
55828;DHT22;41758;51.992;5.890;2023-09-30T14:35:45;24.60;45.40
55828;DHT22;41758;51.992;5.890;2023-09-30T14:38:11;24.50;45.70
55828;DHT22;41758;51.992;5.890;2023-09-30T14:40:38;24.50;45.80
55828;DHT22;41758;51.992;5.890;2023-09-30T14:43:05;24.60;45.80
55828;DHT22;41758;51.992;5.890;2023-09-30T14:45:32;24.60;45.70
55828;DHT22;41758;51.992;5.890;2023-09-30T14:47:57;24.60;45.20
55828;DHT22;41758;51.992;5.890;2023-09-30T14:50:23;24.60;45.20
55828;DHT22;41758;51.992;5.890;2023-09-30T14:52:49;24.70;45.50
55828;DHT22;41758;51.992;5.890;2023-09-30T14:55:15;24.70;45.20
55828;DHT22;41758;51.992;5.890;2023-09-30T14:57:41;24.70;45.40
55828;DHT22;41758;51.992;5.890;2023-09-30T15:00:08;24.70;45.50
55828;DHT22;41758;51.992;5.890;2023-09-30T15:02:34;24.70;45.50
55828;DHT22;41758;51.992;5.890;2023-09-30T15:04:59;24.80;45.50
55828;DHT22;41758;51.992;5.890;2023-09-30T15:07:25;24.70;45.00
55828;DHT22;41758;51.992;5.890;2023-09-30T15:09:51;24.60;45.40
55828;DHT22;41758;51.992;5.890;2023-09-30T15:12:17;24.60;45.80
55828;DHT22;41758;51.992;5.890;2023-09-30T15:14:43;24.60;46.00
55828;DHT22;41758;51.992;5.890;2023-09-30T15:17:10;24.70;46.20
55828;DHT22;41758;51.992;5.890;2023-09-30T15:19:36;24.70;46.60
55828;DHT22;41758;51.992;5.890;2023-09-30T15:22:01;24.70;46.70
55828;DHT22;41758;51.992;5.890;2023-09-30T15:24:27;24.70;46.80
55828;DHT22;41758;51.992;5.890;2023-09-30T15:26:53;24.70;46.90
55828;DHT22;41758;51.992;5.890;2023-09-30T15:29:19;24.80;47.00
55828;DHT22;41758;51.992;5.890;2023-09-30T15:31:45;24.80;47.00
55828;DHT22;41758;51.992;5.890;2023-09-30T15:34:10;24.70;46.30
55828;DHT22;41758;51.992;5.890;2023-09-30T15:36:37;24.70;46.40
55828;DHT22;41758;51.992;5.890;2023-09-30T15:39:02;24.70;46.50
55828;DHT22;41758;51.992;5.890;2023-09-30T15:41:28;24.60;46.60
55828;DHT22;41758;51.992;5.890;2023-09-30T15:43:58;24.60;46.90
55828;DHT22;41758;51.992;5.890;2023-09-30T15:46:25;24.60;47.10
55828;DHT22;41758;51.992;5.890;2023-09-30T15:48:51;24.50;47.00
55828;DHT22;41758;51.992;5.890;2023-09-30T15:51:16;24.50;46.90
55828;DHT22;41758;51.992;5.890;2023-09-30T15:53:42;24.50;47.10
55828;DHT22;41758;51.992;5.890;2023-09-30T15:56:10;24.40;47.30
55828;DHT22;41758;51.992;5.890;2023-09-30T15:58:35;24.40;47.40